createdAt,value
2018-12-14T00:02:28.943Z,9.75
2018-12-14T00:05:00.352Z,9.58
2018-12-14T00:07:31.600Z,11.65
2018-12-14T00:10:00.777Z,10.55
2018-12-14T00:12:29.939Z,13.00
2018-12-14T00:14:59.087Z,13.20
2018-12-14T00:17:28.236Z,15.40
2018-12-14T00:19:57.383Z,14.20
2018-12-14T00:22:26.527Z,11.63
2018-12-14T00:24:55.593Z,13.40
2018-12-14T00:27:25.162Z,9.70
2018-12-14T00:29:54.764Z,14.07
2018-12-14T00:32:23.823Z,14.73
2018-12-14T00:34:53.098Z,14.38
2018-12-14T00:37:22.219Z,10.65
2018-12-14T00:39:51.408Z,15.65
2018-12-14T00:42:20.556Z,13.45
2018-12-14T00:44:49.732Z,13.83
2018-12-14T00:47:18.835Z,11.53
2018-12-14T00:49:47.985Z,16.70
2018-12-14T00:52:17.347Z,14.35
2018-12-14T00:54:46.442Z,14.95
2018-12-14T00:57:15.598Z,15.15
2018-12-14T00:59:45.831Z,13.50
2018-12-14T01:02:20.298Z,13.70
2018-12-14T01:04:49.431Z,13.95
2018-12-14T01:07:18.577Z,13.15
2018-12-14T01:09:47.919Z,11.25
2018-12-14T01:12:17.073Z,11.48
2018-12-14T01:14:46.234Z,10.82
2018-12-14T01:17:15.362Z,11.38
2018-12-14T01:19:44.531Z,11.83
2018-12-14T01:22:13.703Z,9.68
2018-12-14T01:24:42.847Z,10.53
2018-12-14T01:27:11.978Z,10.35
2018-12-14T01:29:41.131Z,12.43
2018-12-14T01:32:10.259Z,13.10
2018-12-14T01:34:39.395Z,12.70
2018-12-14T01:37:08.570Z,11.97
2018-12-14T01:39:37.782Z,10.85
2018-12-14T01:42:07.105Z,12.28
2018-12-14T01:44:36.408Z,16.02
2018-12-14T01:47:05.531Z,12.10
2018-12-14T01:49:34.687Z,11.85
2018-12-14T01:52:03.882Z,8.75
2018-12-14T01:54:33.016Z,12.98
2018-12-14T01:57:02.158Z,11.05
2018-12-14T01:59:31.324Z,11.35
2018-12-14T02:02:00.436Z,11.30
2018-12-14T02:04:29.632Z,14.15
2018-12-14T02:06:58.801Z,11.78
2018-12-14T02:09:27.942Z,11.30
2018-12-14T02:11:57.179Z,9.25
2018-12-14T02:14:26.318Z,11.05
2018-12-14T02:16:56.552Z,11.15
2018-12-14T02:19:25.969Z,9.40
2018-12-14T02:21:55.333Z,10.95
2018-12-14T02:24:24.459Z,9.13
2018-12-14T02:26:53.655Z,11.10
2018-12-14T02:29:22.791Z,12.70
2018-12-14T02:31:52.127Z,10.43
2018-12-14T02:34:21.250Z,12.60
2018-12-14T02:36:50.365Z,11.10
2018-12-14T02:39:19.516Z,8.70
2018-12-14T02:41:48.679Z,10.43
2018-12-14T02:44:17.844Z,9.20
2018-12-14T02:46:46.972Z,11.50
2018-12-14T02:49:16.121Z,10.55
2018-12-14T02:51:45.218Z,8.28
2018-12-14T02:54:14.373Z,9.40
2018-12-14T02:56:43.547Z,12.85
2018-12-14T02:59:12.687Z,9.45
2018-12-14T03:01:41.831Z,10.40
2018-12-14T03:04:10.893Z,7.47
2018-12-14T03:06:40.167Z,11.00
2018-12-14T03:09:09.338Z,11.38
2018-12-14T03:11:38.456Z,9.48
2018-12-14T03:14:07.814Z,7.87
2018-12-14T03:16:37.020Z,10.43
2018-12-14T03:19:06.191Z,8.15
2018-12-14T03:21:35.436Z,7.60
2018-12-14T03:24:04.510Z,9.05
2018-12-14T03:26:33.664Z,11.50
2018-12-14T03:29:02.936Z,11.20
2018-12-14T03:31:32.081Z,10.80
2018-12-14T03:34:01.200Z,8.20
2018-12-14T03:36:30.328Z,11.38
2018-12-14T03:38:59.754Z,8.30
2018-12-14T03:41:28.858Z,8.95
2018-12-14T03:43:58.219Z,9.40
2018-12-14T03:46:27.362Z,7.10
2018-12-14T03:48:56.559Z,9.70
2018-12-14T03:51:28.667Z,8.35
2018-12-14T03:53:58.693Z,8.13
2018-12-14T03:56:27.792Z,8.30
2018-12-14T03:58:56.957Z,8.10
2018-12-14T04:01:26.093Z,8.23
2018-12-14T04:03:55.241Z,7.30
2018-12-14T04:06:24.355Z,7.45
2018-12-14T04:08:55.491Z,7.78
2018-12-14T04:11:24.641Z,6.83
2018-12-14T04:13:53.876Z,8.98
2018-12-14T04:16:23.767Z,9.25
2018-12-14T04:18:52.931Z,7.03
2018-12-14T04:21:22.035Z,6.05
2018-12-14T04:23:51.199Z,7.90
2018-12-14T04:26:20.316Z,9.38
2018-12-14T04:35:36.840Z,9.75
2018-12-14T04:38:07.949Z,9.90
2018-12-14T04:40:37.066Z,7.08
2018-12-14T04:43:06.262Z,5.15
2018-12-14T04:45:35.440Z,7.35
2018-12-14T04:48:04.531Z,8.18
2018-12-14T04:50:33.647Z,8.18
2018-12-14T04:53:02.798Z,7.47
2018-12-14T04:55:31.918Z,6.42
2018-12-14T04:58:01.005Z,7.55
2018-12-14T05:00:30.133Z,10.18
2018-12-14T05:02:59.260Z,8.85
2018-12-14T05:05:28.415Z,6.75
2018-12-14T05:07:57.519Z,10.82
2018-12-14T05:10:26.783Z,8.73
2018-12-14T05:12:56.395Z,8.68
2018-12-14T05:15:25.677Z,7.50
2018-12-14T05:17:55.007Z,7.55
2018-12-14T05:20:24.125Z,6.17
2018-12-14T05:22:53.234Z,9.83
2018-12-14T05:25:22.333Z,8.68
2018-12-14T05:27:51.447Z,5.65
2018-12-14T05:30:20.663Z,6.50
2018-12-14T05:32:49.797Z,7.70
2018-12-14T05:35:18.965Z,7.03
2018-12-14T05:37:48.130Z,9.08
2018-12-14T05:40:17.225Z,5.45
2018-12-14T05:42:46.414Z,5.85
2018-12-14T05:45:15.569Z,6.35
2018-12-14T05:47:45.128Z,7.05
2018-12-14T05:50:14.276Z,6.40
2018-12-14T05:52:43.403Z,5.85
2018-12-14T05:55:12.535Z,8.30
2018-12-14T05:57:41.657Z,6.60
2018-12-14T06:00:12.533Z,7.03
2018-12-14T06:02:41.691Z,9.10
2018-12-14T06:05:10.999Z,9.18
2018-12-14T06:07:40.072Z,8.55
2018-12-14T06:10:09.345Z,7.20
2018-12-14T06:12:38.543Z,7.80
2018-12-14T06:15:07.997Z,8.93
2018-12-14T06:17:37.110Z,7.90
2018-12-14T06:20:07.575Z,10.60
2018-12-14T06:22:36.711Z,10.70
2018-12-14T06:25:06.092Z,7.85
2018-12-14T06:27:35.261Z,5.47
2018-12-14T06:30:05.231Z,7.97
2018-12-14T06:32:34.322Z,9.65
2018-12-14T06:35:03.626Z,9.55
2018-12-14T06:37:32.730Z,9.00
2018-12-14T06:40:01.871Z,9.53
2018-12-14T06:42:33.541Z,10.18
2018-12-14T06:45:02.858Z,11.53
2018-12-14T06:47:32.224Z,6.90
2018-12-14T06:50:01.354Z,9.88
2018-12-14T06:52:31.584Z,15.25
2018-12-14T06:55:00.758Z,9.35
2018-12-14T06:57:29.914Z,11.00
2018-12-14T06:59:59.070Z,8.48
2018-12-14T07:02:28.292Z,8.20
2018-12-14T07:04:57.518Z,11.30
2018-12-14T07:07:26.769Z,7.00
2018-12-14T07:09:56.076Z,8.35
2018-12-14T07:12:25.302Z,10.32
2018-12-14T07:14:54.948Z,9.53
2018-12-14T07:17:24.097Z,11.35
2018-12-14T07:19:53.304Z,10.98
2018-12-14T07:22:22.563Z,10.35
2018-12-14T07:24:52.137Z,12.18
2018-12-14T07:27:21.273Z,11.12
2018-12-14T07:29:50.442Z,12.80
2018-12-14T07:32:19.580Z,10.05
2018-12-14T07:34:48.983Z,8.65
2018-12-14T07:37:18.283Z,8.53
2018-12-14T07:39:47.434Z,11.68
2018-12-14T07:42:16.600Z,9.65
2018-12-14T07:44:45.867Z,7.75
2018-12-14T07:47:15.264Z,10.00
2018-12-14T07:49:44.450Z,11.38
2018-12-14T07:52:13.652Z,8.40
2018-12-14T07:54:42.844Z,8.85
2018-12-14T07:57:12.033Z,8.93
2018-12-14T07:59:41.158Z,8.33
2018-12-14T08:02:10.388Z,11.25
2018-12-14T08:04:39.948Z,10.40
2018-12-14T08:07:09.188Z,8.08
2018-12-14T08:09:38.376Z,10.53
2018-12-14T08:12:07.574Z,11.38
2018-12-14T08:14:36.973Z,5.92
2018-12-14T08:17:06.606Z,9.95
2018-12-14T08:19:35.855Z,8.73
2018-12-14T08:22:05.065Z,8.70
2018-12-14T08:24:34.411Z,9.13
2018-12-14T08:27:03.703Z,9.58
2018-12-14T08:29:32.948Z,8.58
2018-12-14T08:32:02.207Z,12.20
2018-12-14T08:34:31.486Z,10.40
2018-12-14T08:37:00.704Z,11.35
2018-12-14T08:39:29.948Z,9.25
2018-12-14T08:42:00.269Z,10.50
2018-12-14T08:44:29.424Z,7.72
2018-12-14T08:46:58.580Z,10.13
2018-12-14T08:49:27.795Z,11.25
2018-12-14T08:51:57.081Z,9.50
2018-12-14T08:54:26.249Z,10.80
2018-12-14T08:56:55.358Z,13.45
2018-12-14T08:59:24.570Z,11.45
2018-12-14T09:01:53.802Z,9.08
2018-12-14T09:04:22.997Z,9.00
2018-12-14T09:06:52.227Z,12.25
2018-12-14T09:09:21.452Z,9.98
2018-12-14T09:11:50.580Z,10.13
2018-12-14T09:14:19.740Z,11.05
2018-12-14T09:16:48.925Z,10.88
2018-12-14T09:19:19.092Z,10.75
2018-12-14T09:21:48.278Z,14.87
2018-12-14T09:24:17.880Z,9.95
2018-12-14T09:26:47.178Z,12.23
2018-12-14T09:29:16.601Z,12.65
2018-12-14T09:31:46.322Z,11.78
2018-12-14T09:34:15.561Z,11.00
2018-12-14T09:36:45.754Z,12.60
2018-12-14T09:39:14.984Z,10.23
2018-12-14T09:41:44.177Z,10.30
2018-12-14T09:44:13.351Z,12.50
2018-12-14T09:46:42.506Z,12.13
2018-12-14T09:49:11.811Z,12.65
2018-12-14T09:51:41.035Z,12.65
2018-12-14T09:55:39.619Z,11.03
2018-12-14T09:58:08.767Z,15.90
2018-12-14T10:00:37.969Z,9.65
2018-12-14T10:03:07.307Z,11.93
2018-12-14T10:05:36.483Z,9.33
2018-12-14T10:08:05.677Z,12.90
2018-12-14T10:10:34.983Z,11.93
2018-12-14T10:13:04.151Z,12.68
2018-12-14T10:15:33.292Z,12.70
2018-12-14T10:18:02.531Z,10.15
2018-12-14T10:20:31.841Z,13.50
2018-12-14T10:23:01.161Z,15.55
2018-12-14T10:25:30.356Z,14.63
2018-12-14T10:27:59.701Z,11.53
2018-12-14T10:30:28.860Z,12.33
2018-12-14T10:32:57.992Z,13.38
2018-12-14T10:35:27.125Z,12.33
2018-12-14T10:37:56.433Z,10.50
2018-12-14T10:40:25.630Z,14.38
2018-12-14T10:42:54.883Z,11.95
2018-12-14T10:45:25.476Z,11.10
2018-12-14T10:47:54.661Z,12.80
2018-12-14T10:50:23.891Z,11.40
2018-12-14T10:52:53.020Z,14.33
2018-12-14T10:55:22.107Z,12.00
2018-12-14T10:57:51.741Z,13.78
2018-12-14T11:00:26.269Z,12.80
2018-12-14T11:02:55.455Z,12.30
2018-12-14T11:05:24.641Z,12.25
2018-12-14T11:07:53.818Z,12.07
2018-12-14T11:10:22.978Z,8.98
2018-12-14T11:12:52.152Z,12.73
2018-12-14T11:15:21.323Z,13.65
2018-12-14T11:17:50.452Z,15.65
2018-12-14T11:20:19.648Z,12.37
2018-12-14T11:22:51.878Z,14.90
2018-12-14T11:25:21.062Z,13.62
2018-12-14T11:27:50.190Z,11.75
2018-12-14T11:30:19.467Z,12.03
2018-12-14T11:32:48.589Z,13.75
2018-12-14T11:35:17.786Z,9.53
2018-12-14T11:37:46.908Z,11.95
2018-12-14T11:40:16.082Z,9.90
2018-12-14T11:42:45.245Z,11.80
2018-12-14T11:45:14.476Z,7.40
2018-12-14T11:47:43.669Z,11.50
2018-12-14T11:50:13.032Z,11.45
2018-12-14T11:52:42.172Z,10.98
2018-12-14T11:55:11.525Z,9.78
2018-12-14T11:57:40.744Z,13.08
2018-12-14T12:00:14.127Z,9.83
2018-12-14T12:02:43.585Z,10.23
2018-12-14T12:05:13.156Z,12.03
2018-12-14T12:07:43.264Z,12.63
2018-12-14T12:10:12.461Z,12.55
2018-12-14T12:12:41.937Z,14.40
2018-12-14T12:15:11.162Z,12.90
2018-12-14T12:17:40.598Z,11.75
2018-12-14T12:20:09.865Z,9.00
2018-12-14T12:22:39.076Z,10.32
2018-12-14T12:25:08.409Z,10.28
2018-12-14T12:27:37.527Z,10.63
2018-12-14T12:30:08.065Z,10.32
2018-12-14T12:32:37.420Z,11.22
2018-12-14T12:35:08.026Z,10.78
2018-12-14T12:37:37.348Z,11.73
2018-12-14T12:40:06.724Z,12.40
2018-12-14T12:42:35.932Z,14.70
2018-12-14T12:45:05.890Z,14.15
2018-12-14T12:47:35.014Z,11.80
2018-12-14T12:50:04.478Z,13.22
2018-12-14T12:52:33.664Z,10.68
2018-12-14T12:55:02.842Z,10.20
2018-12-14T12:57:32.021Z,11.20
2018-12-14T13:00:01.167Z,13.80
2018-12-14T13:02:30.328Z,12.05
2018-12-14T13:04:59.450Z,11.57
2018-12-14T13:07:28.572Z,9.60
2018-12-14T13:09:57.743Z,15.00
2018-12-14T13:12:26.855Z,13.45
2018-12-14T13:14:56.002Z,11.48
2018-12-14T13:17:25.096Z,9.93
2018-12-14T13:19:54.232Z,12.50
2018-12-14T13:22:23.349Z,11.68
2018-12-14T13:24:52.492Z,13.50
2018-12-14T13:27:21.682Z,14.87
2018-12-14T13:29:50.830Z,13.88
2018-12-14T13:32:19.954Z,14.55
2018-12-14T13:34:49.944Z,9.15
2018-12-14T13:37:19.074Z,10.60
2018-12-14T13:39:48.272Z,11.53
2018-12-14T13:42:17.415Z,10.93
2018-12-14T13:51:34.788Z,9.15
2018-12-14T13:54:03.927Z,11.60
2018-12-14T13:56:34.311Z,9.90
2018-12-14T13:59:03.704Z,9.70
2018-12-14T14:01:32.856Z,12.85
2018-12-14T14:04:02.020Z,11.75
2018-12-14T14:06:31.129Z,12.53
2018-12-14T14:09:00.663Z,11.73
2018-12-14T14:11:30.080Z,12.33
2018-12-14T14:13:59.412Z,9.10
2018-12-14T14:16:28.533Z,16.48
2018-12-14T14:18:57.698Z,15.40
2018-12-14T14:21:26.965Z,13.00
2018-12-14T14:23:56.264Z,11.90
2018-12-14T14:27:54.653Z,10.30
2018-12-14T14:30:24.889Z,15.32
2018-12-14T14:32:54.137Z,11.05
2018-12-14T14:35:23.378Z,15.53
2018-12-14T14:37:57.473Z,12.23
2018-12-14T14:40:24.856Z,11.43
2018-12-14T14:42:54.142Z,15.85
2018-12-14T14:45:23.266Z,13.60
2018-12-14T14:47:52.398Z,12.85
2018-12-14T14:50:21.635Z,13.75
2018-12-14T14:52:50.798Z,11.03
2018-12-14T14:55:20.058Z,12.65
2018-12-14T14:57:49.474Z,11.40
2018-12-14T15:00:18.774Z,13.38
2018-12-14T15:02:47.878Z,13.65
2018-12-14T15:05:17.059Z,18.65
2018-12-14T15:07:46.216Z,12.68
2018-12-14T15:10:15.396Z,11.40
2018-12-14T15:12:44.532Z,12.40
2018-12-14T15:15:13.756Z,13.13
2018-12-14T15:17:42.912Z,13.88
2018-12-14T15:20:12.056Z,11.78
2018-12-14T15:22:41.195Z,16.50
2018-12-14T15:25:10.316Z,14.45
2018-12-14T15:27:39.488Z,16.57
2018-12-14T15:30:09.009Z,14.05
2018-12-14T15:32:38.210Z,13.00
2018-12-14T15:35:07.595Z,13.15
2018-12-14T15:37:36.824Z,14.58
2018-12-14T15:40:08.360Z,11.85
2018-12-14T15:42:37.516Z,14.55
2018-12-14T15:45:12.944Z,11.73
2018-12-14T15:47:38.612Z,14.55
2018-12-14T15:50:08.160Z,17.82
2018-12-14T15:52:37.299Z,16.40
2018-12-14T15:55:06.691Z,19.90
2018-12-14T15:57:35.832Z,21.17
2018-12-14T16:00:05.697Z,15.65
2018-12-14T16:02:34.890Z,15.53
2018-12-14T16:05:04.330Z,15.63
2018-12-14T16:07:33.546Z,18.77
2018-12-14T16:10:02.720Z,16.55
2018-12-14T16:12:32.866Z,16.60
2018-12-14T16:15:02.019Z,19.30
2018-12-14T16:17:32.469Z,21.05
2018-12-14T16:20:01.672Z,22.30
2018-12-14T16:22:31.196Z,19.20
2018-12-14T16:25:00.355Z,19.45
2018-12-14T16:27:29.534Z,15.98
2018-12-14T16:29:58.681Z,16.07
2018-12-14T16:32:28.013Z,20.70
2018-12-14T16:34:57.269Z,16.95
2018-12-14T16:37:26.487Z,20.25
2018-12-14T16:39:55.808Z,22.30
2018-12-14T16:42:25.002Z,16.42
2018-12-14T16:44:54.198Z,17.77
2018-12-14T16:47:23.301Z,17.00
2018-12-14T16:49:52.523Z,16.37
2018-12-14T16:52:21.747Z,14.38
2018-12-14T16:54:51.009Z,17.02
2018-12-14T16:57:20.156Z,22.17
2018-12-14T17:07:20.323Z,22.27
2018-12-14T17:09:49.700Z,18.02
2018-12-14T17:12:18.825Z,19.23
2018-12-14T17:14:47.991Z,21.65
2018-12-14T17:17:17.124Z,17.48
2018-12-14T17:19:46.298Z,19.77
2018-12-14T17:22:15.471Z,17.85
2018-12-14T17:24:44.662Z,20.77
2018-12-14T17:27:13.841Z,19.20
2018-12-14T17:29:43.108Z,19.48
2018-12-14T17:32:12.251Z,18.90
2018-12-14T17:34:41.407Z,19.35
2018-12-14T17:37:12.576Z,22.50
2018-12-14T17:39:42.820Z,22.48
2018-12-14T17:42:13.916Z,23.45
2018-12-14T17:44:43.099Z,19.05
2018-12-14T17:47:12.694Z,19.50
2018-12-14T17:49:41.789Z,21.05
2018-12-14T17:52:10.958Z,23.42
2018-12-14T17:54:40.096Z,19.02
2018-12-14T17:57:09.269Z,22.35
2018-12-14T17:59:38.386Z,19.73
2018-12-14T18:02:07.568Z,22.32
2018-12-14T18:04:37.100Z,21.75
2018-12-14T18:07:06.276Z,16.17
2018-12-14T18:09:35.817Z,20.35
2018-12-14T18:12:05.110Z,22.13
2018-12-14T18:14:34.378Z,22.00
2018-12-14T18:17:03.767Z,19.62
2018-12-14T18:19:33.062Z,18.37
2018-12-14T18:22:02.305Z,18.30
2018-12-14T18:24:31.448Z,24.60
2018-12-14T18:27:00.629Z,19.98
2018-12-14T18:29:29.842Z,24.37
2018-12-14T18:31:59.036Z,19.30
2018-12-14T18:34:28.191Z,23.02
2018-12-14T18:36:58.340Z,20.25
2018-12-14T18:39:27.511Z,19.02
2018-12-14T18:41:56.653Z,22.10
2018-12-14T18:44:25.929Z,21.97
2018-12-14T18:46:55.180Z,17.35
2018-12-14T18:49:24.345Z,20.00
2018-12-14T18:51:53.796Z,19.15
2018-12-14T18:54:23.080Z,20.00
2018-12-14T18:56:52.240Z,18.60
2018-12-14T18:59:21.547Z,20.30
2018-12-14T19:01:50.696Z,24.05
2018-12-14T19:04:19.866Z,22.15
2018-12-14T19:06:49.018Z,23.15
2018-12-14T19:09:18.159Z,22.77
2018-12-14T19:11:47.568Z,22.60
2018-12-14T19:14:16.724Z,18.17
2018-12-14T19:16:45.852Z,25.30
2018-12-14T19:19:14.988Z,22.87
2018-12-14T19:21:44.109Z,15.85
2018-12-14T19:24:13.286Z,20.00
2018-12-14T19:26:42.430Z,21.70
2018-12-14T19:29:12.692Z,25.72
2018-12-14T19:31:41.850Z,23.35
2018-12-14T19:34:10.963Z,21.12
2018-12-14T19:36:40.140Z,22.50
2018-12-14T19:39:09.292Z,19.30
2018-12-14T19:41:40.436Z,25.32
2018-12-14T19:44:10.708Z,21.45
2018-12-14T19:46:39.826Z,24.47
2018-12-14T19:49:09.020Z,21.68
2018-12-14T19:51:38.282Z,24.15
2018-12-14T19:54:07.443Z,25.77
2018-12-14T19:56:37.026Z,18.30
2018-12-14T19:59:06.172Z,22.13
2018-12-14T20:01:35.334Z,21.25
2018-12-14T20:04:04.808Z,19.67
2018-12-14T20:06:34.082Z,19.95
2018-12-14T20:09:04.167Z,16.42
2018-12-14T20:11:34.619Z,20.00
2018-12-14T20:14:04.996Z,25.52
2018-12-14T20:16:34.197Z,20.52
2018-12-14T20:19:03.384Z,24.72
2018-12-14T20:21:32.564Z,21.25
2018-12-14T20:24:01.795Z,20.72
2018-12-14T20:26:31.112Z,16.05
2018-12-14T20:29:00.268Z,17.57
2018-12-14T20:31:29.393Z,21.90
2018-12-14T20:33:58.623Z,18.45
2018-12-14T20:36:27.778Z,21.95
2018-12-14T20:38:56.895Z,26.20
2018-12-14T20:41:26.015Z,19.67
2018-12-14T20:43:55.178Z,20.60
2018-12-14T20:46:24.288Z,23.87
2018-12-14T20:48:53.423Z,24.67
2018-12-14T20:51:22.571Z,25.15
2018-12-14T20:53:51.760Z,23.87
2018-12-14T20:56:20.947Z,22.40
2018-12-14T20:58:50.107Z,19.70
2018-12-14T21:01:19.282Z,17.82
2018-12-14T21:03:48.395Z,20.85
2018-12-14T21:06:17.551Z,23.35
2018-12-14T21:08:46.768Z,20.82
2018-12-14T21:11:15.928Z,19.95
2018-12-14T21:13:45.119Z,21.17
2018-12-14T21:16:14.454Z,18.70
2018-12-14T21:18:43.583Z,22.62
2018-12-14T21:21:12.821Z,19.48
2018-12-14T21:23:41.953Z,17.32
2018-12-14T21:26:11.247Z,17.20
2018-12-14T21:28:40.390Z,23.65
2018-12-14T21:31:09.734Z,20.62
2018-12-14T21:33:38.837Z,28.10
2018-12-14T21:36:08.014Z,22.02
2018-12-14T21:38:37.190Z,23.30
2018-12-14T21:41:06.352Z,24.07
2018-12-14T21:43:35.499Z,27.20
2018-12-14T21:46:04.680Z,25.80
2018-12-14T21:48:33.829Z,24.00
2018-12-14T21:51:02.993Z,24.40
2018-12-14T21:53:32.111Z,21.23
2018-12-14T21:56:01.256Z,28.12
2018-12-14T21:58:30.452Z,23.85
2018-12-14T22:00:59.609Z,25.52
2018-12-14T22:03:29.117Z,23.83
2018-12-14T22:05:58.314Z,21.57
2018-12-14T22:08:27.462Z,22.87
2018-12-14T22:10:56.648Z,21.95
2018-12-14T22:13:25.852Z,25.25
2018-12-14T22:15:54.984Z,26.05
2018-12-14T22:18:24.381Z,25.88
2018-12-14T22:20:53.543Z,25.25
2018-12-14T22:23:22.733Z,25.35
2018-12-14T22:25:51.851Z,22.80
2018-12-14T22:28:20.991Z,23.10
2018-12-14T22:30:50.139Z,17.77
2018-12-14T22:33:19.299Z,19.35
2018-12-14T22:35:48.444Z,23.32
2018-12-14T22:38:17.945Z,22.00
2018-12-14T22:40:47.095Z,26.73
2018-12-14T22:43:16.685Z,26.05
2018-12-14T22:45:45.843Z,21.87
2018-12-14T22:48:15.133Z,19.60
2018-12-14T22:50:44.259Z,27.02
2018-12-14T22:53:13.417Z,26.77
2018-12-14T22:55:42.658Z,21.42
2018-12-14T22:58:11.758Z,16.05
2018-12-14T23:00:46.644Z,23.92
2018-12-14T23:03:15.760Z,21.10
2018-12-14T23:05:44.908Z,19.57
2018-12-14T23:08:14.097Z,19.90
2018-12-14T23:10:44.316Z,25.92
2018-12-14T23:13:13.494Z,20.52
2018-12-14T23:15:43.332Z,20.77
2018-12-14T23:18:12.471Z,18.30
2018-12-14T23:20:41.817Z,24.43
2018-12-14T23:23:11.045Z,21.25
2018-12-14T23:25:40.188Z,16.67
2018-12-14T23:28:09.338Z,21.10
2018-12-14T23:30:38.528Z,20.35
2018-12-14T23:39:55.747Z,19.95
2018-12-14T23:42:24.911Z,18.00
2018-12-14T23:44:54.057Z,16.82
2018-12-14T23:47:23.221Z,14.75
2018-12-14T23:49:52.401Z,13.60
2018-12-14T23:52:21.533Z,16.93
2018-12-14T23:54:50.724Z,17.07
2018-12-14T23:57:19.935Z,18.73
2018-12-14T23:59:49.056Z,13.28
